CloseHelpProblem

Burley Lions Spudman Triathlon

07/26/08


PlBibNameRepresenting Age DivisionLapsFinal TimeTime BackPaceAdjustment
11953 CHRISTENSEN, CHRISTEJAMES CHRISTENSEN, LIA CHRISTENSEN & GREY CHRISTENSEN31 Mixed Under 75001:21:21.2+00:00:00.000:20:37.706
21851 WALTON MITCHELL & FIKIM WALTON, JUSTIN MITCHELL & DAVID FILMORE32 Mixed 75 - 106001:40:18.8+00:18:57.601:01:58.80600:00:52.300
31803 DAYLEY DOSERICK DAYLEY, JENNY DAYLEY & WES WALTON32 Mixed 75 - 106001:51:47.4+00:30:26.201:08:48.50600:00:52.600
4501 ANDERTONSDON ANDERTON, DOUG ANDERTON & DAVE ANDERTON32 Mixed 75 - 106001:54:33.7+00:33:12.501:08:31.20600:00:53.000
5718 F^3BEN FOLLETT, KASSIE FELT & KRIS FELT31 Mixed Under 75001:57:04.3+00:35:43.101:13:01.90600:00:57.000
61494 TROGDORHETTY GOWER, WAYNE CHRISTENSON & JEFF GOWER31 Mixed Under 75001:57:14.3+00:35:53.101:08:56.60600:00:42.300
71977 FARFAN 183Brittany Farfan, Miguel Farfan, Joe Farfan32 Mixed 75 - 106001:57:21.7+00:36:00.501:12:18.90600:00:50.900
81737 JONES CREWANDI JONES, GREG JONES &33 Mixed 107 - 137001:57:23.1+00:36:01.901:05:41.40600:01:00.800
91881 HIGHAM, HIGHAM, HIGHDAVE HIGHAM, CHRISTINE HIGHAM & MICHAEL HIGHAM32 Mixed 75 - 106001:58:21.4+00:37:00.201:05:40.20600:00:57.200
10871 DADDY DAUGHTER DATESTEVE HUISH, RIN PRICE-HUISH &31 Mixed Under 75002:00:19.9+00:38:58.701:09:01.00600:01:24.100
111180 JOLLEYLISA JOLLEY, GREG JOLLEY &32 Mixed 75 - 106002:00:26.6+00:39:05.401:05:40.80600:00:59.700
121755 EAT MY DUSTKIM EVANS, ERON EVANS & DAVE PENROD32 Mixed 75 - 106002:01:57.6+00:40:36.401:05:54.50600:01:17.200
131534 NEXT GENERATIONEVAN TAYLER, ERICA TAYLER & BEN LOBROT31 Mixed Under 75002:03:14.6+00:41:53.401:05:42.80600:01:01.100
141605 TAYLER FAMILYGENNY TAYLER, EMILY WOOLLEY & REED LOBROT33 Mixed 107 - 137002:05:51.7+00:44:30.501:13:15.40600:00:56.700
151858 SIMON, TEMPLE & SIMOALISSA SIMON, ROCK TEMPLE & TERESA SIMON32 Mixed 75 - 106002:06:25.5+00:45:04.301:01:27.50600:00:58.600
161880 MAY, MAY & MAYCOLBY MAY, RICK MAY & AMY MAY32 Mixed 75 - 106002:09:14.3+00:47:53.101:13:55.20600:01:01.300
171746 TEAM PHILLIPSCAROLYN PHILLIPS, JAMES PHILLIPS & JOSEPH PHILLIPS32 Mixed 75 - 106002:11:29.4+00:50:08.201:16:47.30600:00:45.200
18902 MALLORY LANELANA GIBBONS, ADRIA MASONER & ROB HANSEN33 Mixed 107 - 137002:11:57.6+00:50:36.401:04:22.50600:01:03.900
191820 GUNNELL & MCCALLCHRISTINE GUNNELL, WALTER MCCALL &33 Mixed 107 - 137002:12:02.3+00:50:41.101:02:00.20600:01:12.400
191801 TEAM WAGNERTED WAGNER, LESLIE WAGNER &32 Mixed 75 - 106002:12:02.3+00:50:41.101:04:06.10600:01:04.300
211617 TWO BALD GUYSBRETT WATERS, ALAN JENKINS &33 Mixed 107 - 137002:13:43.3+00:52:22.101:14:30.50600:01:07.900
222098 VALKYRIESDaniel Brown, Cathy Brown, Nick Brown32 Mixed 75 - 106002:15:33.5+00:54:12.301:29:25.80600:00:42.500
23737 3 CRAZY SPUDSJEFF MILLER, MICHELLE CRITCHFIELD & MIKE CRITCHFIELD32 Mixed 75 - 106002:16:09.4+00:54:48.2
241558 BLAINE AUSTIN FAMILYBLAINE AUSTIN, DIANE AUSTIN & JAN AUSTIN33 Mixed 107 - 137002:16:42.2+00:55:21.001:02:07.20600:01:06.200
252100 TEAM MARVOwen Scanlon, Marvin Melville, & Christina Taylor34 Mixed 138 and Over002:16:59.7+00:55:38.501:09:17.00600:00:54.300
26490 ALVEY ACESSUE ALVEY, JIM ALVEY & JEFF ALVEY33 Mixed 107 - 137002:17:23.2+00:56:02.001:12:18.00600:01:00.800
271714 DECLO COEDMACEY JONES, DAVIS S. JONES & MCKELL WEBB31 Mixed Under 75002:18:07.1+00:56:45.9
281122 CLEMENTSSTEVE CLEMENT, HEATHER CLEMENT &32 Mixed 75 - 106002:18:50.0+00:57:28.801:13:46.30600:02:27.300
291243 SNOW 4DUSTIN SNOW, KADEE SNOW &32 Mixed 75 - 106002:19:29.7+00:58:08.501:17:34.80600:01:05.500
301668 RYAN AND DEANNADEANNA ELLSWORTH, RYAN ELLSWORTH &32 Mixed 75 - 106002:20:11.8+00:58:50.601:20:49.60600:01:12.500
311800 ROBINSONWARRIORSJILL ROBINSON, JARED ROBINSON &32 Mixed 75 - 106002:20:14.1+00:58:52.901:23:18.80600:03:17.900
321703 AMB MOVEMENTALI THACKERAY, ANNE THACKERAY & STEPHANIE SCOTT32 Mixed 75 - 106002:21:30.4+01:00:09.2
331825 JENSEN, BOYD & JENSEKENT JENSEN, ANA BOYD & BRANDON JENSEN33 Mixed 107 - 137002:22:27.7+01:01:06.501:17:34.30600:01:06.600
34968 TEAM MILLER/ARDTORRIE MILLER, CAROL ARD & DANIEL MILLER32 Mixed 75 - 106002:23:19.7+01:01:58.501:22:30.10600:00:57.100
3599 TEAM BAKKERROY BAKKER, LORI BAKKER &34 Mixed 138 and Over002:24:13.7+01:02:52.501:10:08.00600:01:09.900
36722 LAND VIEW INC.KURT HARMAN, MIRANDA GIBSON &32 Mixed 75 - 106002:28:38.2+01:07:17.001:22:25.20600:01:10.500
371806 VILLANUEVA, THOMAS &AMY VILLANUEVA, WALKER THOMAS & HAYLEY A DAYLEY32 Mixed 75 - 106002:29:11.2+01:07:50.001:20:27.10600:01:02.300
381557 MOMENTS NOTICEROSEZINA SMITH, LEON JACOBS & BRIAN TUREMAN32 Mixed 75 - 106002:30:28.4+01:09:07.201:32:03.90600:00:58.200
391666 CHUBADUBSPAUL ELLSWORTH, KIRSTEN ELLSWORTH &32 Mixed 75 - 106002:33:29.7+01:12:08.501:23:31.40600:00:58.000
401399 TEXELLSTREVOR ELLSWORTH, MARCY ELLSWORTH &33 Mixed 107 - 137002:33:34.2+01:12:13.0
411452 SOMETHING OLD, SOMETCRAIG RICHARDS, KIRA RICHARDS &32 Mixed 75 - 106002:34:52.6+01:13:31.401:20:32.70600:01:01.100
42340 SPUDILICIOUSSADIE WEST, ELISE REEDER & MARTY REEDER31 Mixed Under 75002:35:43.5+01:14:22.301:29:19.30600:00:58.900
431708 RED HOTSDOUGLAS FABBRI, SHANNON MANNING & DARYN FABBRI33 Mixed 107 - 137002:37:42.9+01:16:21.701:37:12.70600:01:00.600
441364 PETERSENSLINDA PETERSEN, KIM SEELY, CURTIS STOKER34 Mixed 138 and Over002:38:51.8+01:17:30.601:16:53.00600:01:21.700
451833 WOODBURY, GEARY, & BORIN WOODBURY, CELES GEARY & MARIANA BIJORRN33 Mixed 107 - 137002:39:12.9+01:17:51.701:36:39.60600:00:54.400
46943 NONEDAVID PRATT, LISA HORNE &32 Mixed 75 - 106002:42:14.2+01:20:53.001:14:50.80600:04:22.100
471631 GLADE & BEVGLADE PETERSON, BEVERLY PETERSON &34 Mixed 138 and Over002:42:56.0+01:21:34.801:13:43.50600:01:11.800
481832 GEARY AND GEARYNIKKI GEARY, JOSH GEARY &32 Mixed 75 - 106002:45:49.5+01:24:28.301:52:55.70600:00:48.800
49640 TEAM SLACKERKINDEE DIXON, RUSS DIXON & RANGER RICK NIELSEN33 Mixed 107 - 137002:46:16.8+01:24:55.601:35:05.50600:01:17.600
501702 PARKRIDGE PARROTSTRACY MERVIN, CASEY MERVIN & JOAN CHILDERS32 Mixed 75 - 106002:46:44.3+01:25:23.101:37:22.00600:01:05.500
511420 COOPER AND MORELLIBRYAN COOPER, SUSIE MORELLI &33 Mixed 107 - 137002:50:26.9+01:29:05.700:19:58.81600:04:47.30001:15:47.50000:01:15.10001:08:38.200
521798 MOMMACITASMARCI NEBEKER, LISA NEBEKER, MARSHALL GREER32 Mixed 75 - 106002:50:32.1+01:29:10.901:20:52.80600:01:11.700
531869 HURST ABD BLAUCHRIS HANSEN, ADAM BLAU &32 Mixed 75 - 106003:02:18.1+01:40:56.901:38:25.40600:00:48.300
541787 YEPERSSETH ELLSWORTH, SAM ELLSWORTH &31 Mixed Under 75003:05:52.5+01:44:31.301:38:58.90600:01:07.500
1854 COBLENTZ & COBLENTZDEBBIE COBLENTZ, BILL COBLENTZ &33 Mixed 107 - 1370DNS
1663 DEWDROPSALEX KIRRY, BECCA DEWEY & JESSE STUBBS31 Mixed Under 750DNS
1862 HEPWORTH, HEPWORTH &KELLI HEPWORTH, QUINN HEPWORTH & RYAN HEPWORTH33 Mixed 107 - 1370DNS
269 JOTAMTAMMY PETERSEN, JOHN PETERSEN &34 Mixed 138 and Over0DNS
1504 MELS GANGMELANIE FORBES, COLIN FORBES & TAMARA JACOBS32 Mixed 75 - 1060DNS
927 NICU TEAMJOY CRANDALL, SHAWN WARD & SUSAN WIEDMEIER31 Mixed Under 750DNS
632 TEAM AWESOMEJEFFREY DANLEY, KIMBERLY DANLEY &32 Mixed 75 - 1060DNS
1002 WOODS KIDSPAM CALDWELL, ERIC WOODS & MELANIE PRICE32 Mixed 75 - 1060DNS